sensor_id;sensor_type;location;lat;lon;timestamp;P1;durP1;ratioP1;P2;durP2;ratioP2
16468;SDS011;8345;50.902;6.956;2023-07-31T00:02:03;7.93;;;4.23;;
16468;SDS011;8345;50.902;6.956;2023-07-31T00:04:30;6.93;;;4.80;;
16468;SDS011;8345;50.902;6.956;2023-07-31T00:06:57;6.97;;;4.70;;
16468;SDS011;8345;50.902;6.956;2023-07-31T00:09:25;6.97;;;4.63;;
16468;SDS011;8345;50.902;6.956;2023-07-31T00:11:52;9.10;;;5.87;;
16468;SDS011;8345;50.902;6.956;2023-07-31T00:14:19;6.80;;;4.40;;
16468;SDS011;8345;50.902;6.956;2023-07-31T00:16:47;8.43;;;5.10;;
16468;SDS011;8345;50.902;6.956;2023-07-31T00:19:15;7.17;;;4.63;;
16468;SDS011;8345;50.902;6.956;2023-07-31T00:21:42;8.90;;;5.60;;
16468;SDS011;8345;50.902;6.956;2023-07-31T00:24:09;9.10;;;5.63;;
16468;SDS011;8345;50.902;6.956;2023-07-31T00:26:36;7.63;;;4.77;;
16468;SDS011;8345;50.902;6.956;2023-07-31T00:29:03;7.27;;;4.37;;
16468;SDS011;8345;50.902;6.956;2023-07-31T00:31:30;8.43;;;4.70;;
16468;SDS011;8345;50.902;6.956;2023-07-31T00:33:59;6.73;;;4.73;;
16468;SDS011;8345;50.902;6.956;2023-07-31T00:36:26;6.77;;;3.93;;
16468;SDS011;8345;50.902;6.956;2023-07-31T00:38:53;7.80;;;5.43;;
16468;SDS011;8345;50.902;6.956;2023-07-31T00:41:21;8.23;;;4.53;;
16468;SDS011;8345;50.902;6.956;2023-07-31T00:43:48;6.80;;;3.43;;
16468;SDS011;8345;50.902;6.956;2023-07-31T00:46:15;8.00;;;4.97;;
16468;SDS011;8345;50.902;6.956;2023-07-31T00:48:42;6.47;;;3.47;;
16468;SDS011;8345;50.902;6.956;2023-07-31T00:51:11;6.90;;;3.90;;
16468;SDS011;8345;50.902;6.956;2023-07-31T00:53:38;6.10;;;5.23;;
16468;SDS011;8345;50.902;6.956;2023-07-31T00:56:05;7.57;;;4.43;;
16468;SDS011;8345;50.902;6.956;2023-07-31T00:58:33;6.50;;;3.53;;
16468;SDS011;8345;50.902;6.956;2023-07-31T01:01:00;5.70;;;3.30;;
16468;SDS011;8345;50.902;6.956;2023-07-31T01:03:27;4.90;;;3.80;;
16468;SDS011;8345;50.902;6.956;2023-07-31T01:05:56;4.10;;;3.30;;
16468;SDS011;8345;50.902;6.956;2023-07-31T01:08:29;6.57;;;3.47;;
16468;SDS011;8345;50.902;6.956;2023-07-31T01:11:00;5.60;;;3.50;;
16468;SDS011;8345;50.902;6.956;2023-07-31T01:13:29;6.27;;;3.47;;
16468;SDS011;8345;50.902;6.956;2023-07-31T01:15:56;10.13;;;4.07;;
16468;SDS011;8345;50.902;6.956;2023-07-31T01:18:23;6.67;;;3.33;;
16468;SDS011;8345;50.902;6.956;2023-07-31T01:20:53;3.97;;;3.30;;
16468;SDS011;8345;50.902;6.956;2023-07-31T01:26:12;4.70;;;3.43;;
16468;SDS011;8345;50.902;6.956;2023-07-31T01:28:42;7.27;;;4.70;;
16468;SDS011;8345;50.902;6.956;2023-07-31T01:31:11;5.97;;;3.97;;
16468;SDS011;8345;50.902;6.956;2023-07-31T01:33:39;6.40;;;3.23;;
16468;SDS011;8345;50.902;6.956;2023-07-31T01:36:07;8.33;;;4.77;;
16468;SDS011;8345;50.902;6.956;2023-07-31T01:38:34;5.30;;;4.20;;
16468;SDS011;8345;50.902;6.956;2023-07-31T01:41:01;8.23;;;5.60;;
16468;SDS011;8345;50.902;6.956;2023-07-31T01:43:30;6.73;;;3.80;;
16468;SDS011;8345;50.902;6.956;2023-07-31T01:45:57;7.67;;;3.50;;
16468;SDS011;8345;50.902;6.956;2023-07-31T01:48:24;4.80;;;3.53;;
16468;SDS011;8345;50.902;6.956;2023-07-31T01:50:51;6.17;;;3.13;;
16468;SDS011;8345;50.902;6.956;2023-07-31T01:53:18;5.30;;;3.33;;
16468;SDS011;8345;50.902;6.956;2023-07-31T01:55:46;6.70;;;4.70;;
16468;SDS011;8345;50.902;6.956;2023-07-31T01:58:13;7.37;;;3.70;;
16468;SDS011;8345;50.902;6.956;2023-07-31T02:00:41;5.43;;;3.60;;
16468;SDS011;8345;50.902;6.956;2023-07-31T02:03:08;6.00;;;2.93;;
16468;SDS011;8345;50.902;6.956;2023-07-31T02:05:36;3.57;;;2.90;;
16468;SDS011;8345;50.902;6.956;2023-07-31T02:08:03;4.67;;;2.93;;
16468;SDS011;8345;50.902;6.956;2023-07-31T02:10:30;5.90;;;3.40;;
16468;SDS011;8345;50.902;6.956;2023-07-31T02:12:57;6.67;;;3.57;;
16468;SDS011;8345;50.902;6.956;2023-07-31T02:15:24;4.87;;;3.70;;
16468;SDS011;8345;50.902;6.956;2023-07-31T02:17:53;4.53;;;3.30;;
16468;SDS011;8345;50.902;6.956;2023-07-31T02:20:20;6.37;;;3.20;;
16468;SDS011;8345;50.902;6.956;2023-07-31T02:22:47;5.67;;;3.50;;
16468;SDS011;8345;50.902;6.956;2023-07-31T02:25:15;4.73;;;3.40;;
16468;SDS011;8345;50.902;6.956;2023-07-31T02:27:42;4.70;;;4.20;;
16468;SDS011;8345;50.902;6.956;2023-07-31T02:30:09;3.40;;;3.00;;
16468;SDS011;8345;50.902;6.956;2023-07-31T02:32:37;5.93;;;3.13;;
16468;SDS011;8345;50.902;6.956;2023-07-31T02:35:06;4.97;;;3.00;;
16468;SDS011;8345;50.902;6.956;2023-07-31T02:37:33;6.60;;;3.20;;
16468;SDS011;8345;50.902;6.956;2023-07-31T02:40:01;4.90;;;3.17;;
16468;SDS011;8345;50.902;6.956;2023-07-31T02:42:28;5.23;;;3.17;;
16468;SDS011;8345;50.902;6.956;2023-07-31T02:44:55;5.10;;;3.43;;
16468;SDS011;8345;50.902;6.956;2023-07-31T02:47:22;4.90;;;3.40;;
16468;SDS011;8345;50.902;6.956;2023-07-31T02:49:49;5.67;;;3.90;;
16468;SDS011;8345;50.902;6.956;2023-07-31T02:52:18;6.67;;;3.60;;
16468;SDS011;8345;50.902;6.956;2023-07-31T02:54:45;5.27;;;2.97;;
16468;SDS011;8345;50.902;6.956;2023-07-31T02:57:12;4.70;;;3.33;;
16468;SDS011;8345;50.902;6.956;2023-07-31T02:59:41;6.13;;;3.73;;
16468;SDS011;8345;50.902;6.956;2023-07-31T03:02:08;5.47;;;3.60;;
16468;SDS011;8345;50.902;6.956;2023-07-31T03:04:35;6.67;;;3.53;;
16468;SDS011;8345;50.902;6.956;2023-07-31T03:07:03;6.27;;;3.50;;
16468;SDS011;8345;50.902;6.956;2023-07-31T03:09:31;5.27;;;3.67;;
16468;SDS011;8345;50.902;6.956;2023-07-31T03:11:59;8.10;;;3.60;;
16468;SDS011;8345;50.902;6.956;2023-07-31T03:14:26;4.67;;;3.30;;
16468;SDS011;8345;50.902;6.956;2023-07-31T03:16:53;6.40;;;3.83;;
16468;SDS011;8345;50.902;6.956;2023-07-31T03:19:20;5.33;;;3.70;;
16468;SDS011;8345;50.902;6.956;2023-07-31T03:21:47;5.73;;;3.50;;
16468;SDS011;8345;50.902;6.956;2023-07-31T03:24:15;5.70;;;3.17;;
16468;SDS011;8345;50.902;6.956;2023-07-31T03:26:43;5.60;;;3.67;;
16468;SDS011;8345;50.902;6.956;2023-07-31T03:29:10;6.87;;;3.73;;
16468;SDS011;8345;50.902;6.956;2023-07-31T03:31:37;5.30;;;3.87;;
16468;SDS011;8345;50.902;6.956;2023-07-31T03:34:05;4.63;;;3.53;;
16468;SDS011;8345;50.902;6.956;2023-07-31T03:36:32;5.40;;;3.53;;
16468;SDS011;8345;50.902;6.956;2023-07-31T03:38:59;5.93;;;3.30;;
16468;SDS011;8345;50.902;6.956;2023-07-31T03:41:26;6.43;;;3.97;;
16468;SDS011;8345;50.902;6.956;2023-07-31T03:43:55;5.67;;;3.63;;
16468;SDS011;8345;50.902;6.956;2023-07-31T03:46:22;7.03;;;3.83;;
16468;SDS011;8345;50.902;6.956;2023-07-31T03:48:49;4.03;;;3.63;;
16468;SDS011;8345;50.902;6.956;2023-07-31T03:51:17;7.03;;;3.73;;
16468;SDS011;8345;50.902;6.956;2023-07-31T03:53:44;6.00;;;4.13;;
16468;SDS011;8345;50.902;6.956;2023-07-31T03:56:11;8.43;;;4.57;;
16468;SDS011;8345;50.902;6.956;2023-07-31T03:58:38;5.27;;;4.50;;
16468;SDS011;8345;50.902;6.956;2023-07-31T04:01:07;5.10;;;3.90;;
16468;SDS011;8345;50.902;6.956;2023-07-31T04:03:34;5.50;;;3.67;;
16468;SDS011;8345;50.902;6.956;2023-07-31T04:06:01;5.97;;;3.53;;
16468;SDS011;8345;50.902;6.956;2023-07-31T04:08:29;5.17;;;3.83;;
16468;SDS011;8345;50.902;6.956;2023-07-31T04:10:56;7.80;;;3.93;;
16468;SDS011;8345;50.902;6.956;2023-07-31T04:13:23;5.10;;;3.60;;
16468;SDS011;8345;50.902;6.956;2023-07-31T04:15:52;6.83;;;4.20;;
16468;SDS011;8345;50.902;6.956;2023-07-31T04:18:21;5.67;;;3.90;;
16468;SDS011;8345;50.902;6.956;2023-07-31T04:20:48;6.60;;;4.03;;
16468;SDS011;8345;50.902;6.956;2023-07-31T04:23:15;5.07;;;3.53;;
16468;SDS011;8345;50.902;6.956;2023-07-31T04:25:42;5.43;;;3.90;;
16468;SDS011;8345;50.902;6.956;2023-07-31T04:28:10;6.17;;;3.93;;
16468;SDS011;8345;50.902;6.956;2023-07-31T04:30:37;4.87;;;3.57;;
16468;SDS011;8345;50.902;6.956;2023-07-31T04:33:04;5.83;;;4.13;;
16468;SDS011;8345;50.902;6.956;2023-07-31T04:35:32;5.53;;;3.77;;
16468;SDS011;8345;50.902;6.956;2023-07-31T04:38:00;4.90;;;3.70;;
16468;SDS011;8345;50.902;6.956;2023-07-31T04:40:27;5.40;;;4.10;;
16468;SDS011;8345;50.902;6.956;2023-07-31T04:42:54;4.43;;;3.80;;
16468;SDS011;8345;50.902;6.956;2023-07-31T04:45:21;5.93;;;3.97;;
16468;SDS011;8345;50.902;6.956;2023-07-31T04:47:48;4.33;;;3.93;;
16468;SDS011;8345;50.902;6.956;2023-07-31T04:50:15;5.87;;;3.70;;
16468;SDS011;8345;50.902;6.956;2023-07-31T04:52:44;4.20;;;3.73;;
16468;SDS011;8345;50.902;6.956;2023-07-31T04:55:11;4.33;;;3.60;;
16468;SDS011;8345;50.902;6.956;2023-07-31T04:57:38;5.47;;;3.70;;
16468;SDS011;8345;50.902;6.956;2023-07-31T05:00:06;5.50;;;3.77;;
16468;SDS011;8345;50.902;6.956;2023-07-31T05:02:33;4.27;;;3.50;;
16468;SDS011;8345;50.902;6.956;2023-07-31T05:05:00;5.60;;;4.03;;
16468;SDS011;8345;50.902;6.956;2023-07-31T05:07:28;6.30;;;4.03;;
16468;SDS011;8345;50.902;6.956;2023-07-31T05:09:56;5.67;;;3.97;;
16468;SDS011;8345;50.902;6.956;2023-07-31T05:12:23;6.43;;;3.87;;
16468;SDS011;8345;50.902;6.956;2023-07-31T05:14:51;5.73;;;3.60;;
16468;SDS011;8345;50.902;6.956;2023-07-31T05:17:18;5.30;;;3.50;;
16468;SDS011;8345;50.902;6.956;2023-07-31T05:19:45;7.03;;;4.07;;
16468;SDS011;8345;50.902;6.956;2023-07-31T05:22:12;5.43;;;3.70;;
16468;SDS011;8345;50.902;6.956;2023-07-31T05:24:39;4.87;;;3.40;;
16468;SDS011;8345;50.902;6.956;2023-07-31T05:27:08;4.83;;;3.93;;
16468;SDS011;8345;50.902;6.956;2023-07-31T05:29:35;5.37;;;3.80;;
16468;SDS011;8345;50.902;6.956;2023-07-31T05:32:03;4.67;;;3.30;;
16468;SDS011;8345;50.902;6.956;2023-07-31T05:34:30;5.03;;;3.77;;
16468;SDS011;8345;50.902;6.956;2023-07-31T05:36:57;4.20;;;3.50;;
16468;SDS011;8345;50.902;6.956;2023-07-31T05:39:24;4.40;;;4.00;;
16468;SDS011;8345;50.902;6.956;2023-07-31T05:41:52;4.13;;;3.40;;
16468;SDS011;8345;50.902;6.956;2023-07-31T05:44:20;5.27;;;3.83;;
16468;SDS011;8345;50.902;6.956;2023-07-31T05:46:47;5.00;;;3.60;;
16468;SDS011;8345;50.902;6.956;2023-07-31T05:49:14;7.53;;;4.17;;
16468;SDS011;8345;50.902;6.956;2023-07-31T05:51:42;3.83;;;3.53;;
16468;SDS011;8345;50.902;6.956;2023-07-31T05:54:09;4.77;;;3.60;;
16468;SDS011;8345;50.902;6.956;2023-07-31T05:56:36;5.07;;;3.70;;
16468;SDS011;8345;50.902;6.956;2023-07-31T05:59:03;5.40;;;3.80;;
16468;SDS011;8345;50.902;6.956;2023-07-31T06:01:32;5.00;;;3.80;;
16468;SDS011;8345;50.902;6.956;2023-07-31T06:03:59;7.70;;;3.67;;
16468;SDS011;8345;50.902;6.956;2023-07-31T06:06:27;5.23;;;4.20;;
16468;SDS011;8345;50.902;6.956;2023-07-31T06:08:54;6.23;;;3.90;;
16468;SDS011;8345;50.902;6.956;2023-07-31T06:11:21;5.13;;;4.00;;
16468;SDS011;8345;50.902;6.956;2023-07-31T06:13:49;4.73;;;4.23;;
16468;SDS011;8345;50.902;6.956;2023-07-31T06:16:16;6.33;;;4.27;;
16468;SDS011;8345;50.902;6.956;2023-07-31T06:18:44;5.67;;;3.90;;
16468;SDS011;8345;50.902;6.956;2023-07-31T06:21:12;5.73;;;4.63;;
16468;SDS011;8345;50.902;6.956;2023-07-31T06:23:39;4.17;;;3.70;;
16468;SDS011;8345;50.902;6.956;2023-07-31T06:26:06;4.93;;;3.73;;
16468;SDS011;8345;50.902;6.956;2023-07-31T06:28:34;5.97;;;4.17;;
16468;SDS011;8345;50.902;6.956;2023-07-31T06:31:01;6.70;;;4.30;;
16468;SDS011;8345;50.902;6.956;2023-07-31T06:33:29;6.70;;;4.13;;
16468;SDS011;8345;50.902;6.956;2023-07-31T06:35:57;4.03;;;3.60;;
16468;SDS011;8345;50.902;6.956;2023-07-31T06:38:25;4.27;;;3.87;;
16468;SDS011;8345;50.902;6.956;2023-07-31T06:40:53;5.73;;;4.43;;
16468;SDS011;8345;50.902;6.956;2023-07-31T06:43:20;4.93;;;3.83;;
16468;SDS011;8345;50.902;6.956;2023-07-31T06:45:48;5.53;;;3.90;;
16468;SDS011;8345;50.902;6.956;2023-07-31T06:48:16;5.80;;;3.40;;
16468;SDS011;8345;50.902;6.956;2023-07-31T06:50:43;6.67;;;4.37;;
16468;SDS011;8345;50.902;6.956;2023-07-31T06:53:12;6.07;;;4.10;;
16468;SDS011;8345;50.902;6.956;2023-07-31T06:55:39;6.47;;;4.60;;
16468;SDS011;8345;50.902;6.956;2023-07-31T06:58:07;5.33;;;3.97;;
16468;SDS011;8345;50.902;6.956;2023-07-31T07:00:34;4.80;;;4.07;;
16468;SDS011;8345;50.902;6.956;2023-07-31T07:03:01;4.60;;;4.10;;
16468;SDS011;8345;50.902;6.956;2023-07-31T07:05:28;6.27;;;4.23;;
16468;SDS011;8345;50.902;6.956;2023-07-31T07:07:55;6.73;;;3.83;;
16468;SDS011;8345;50.902;6.956;2023-07-31T07:10:24;5.70;;;3.77;;
16468;SDS011;8345;50.902;6.956;2023-07-31T07:12:54;4.17;;;3.77;;
16468;SDS011;8345;50.902;6.956;2023-07-31T07:15:21;6.40;;;3.97;;
16468;SDS011;8345;50.902;6.956;2023-07-31T07:17:48;5.00;;;3.87;;
16468;SDS011;8345;50.902;6.956;2023-07-31T07:20:16;5.00;;;3.80;;
16468;SDS011;8345;50.902;6.956;2023-07-31T07:22:45;5.17;;;4.07;;
16468;SDS011;8345;50.902;6.956;2023-07-31T07:25:12;6.87;;;4.30;;
16468;SDS011;8345;50.902;6.956;2023-07-31T07:27:40;5.33;;;4.13;;
16468;SDS011;8345;50.902;6.956;2023-07-31T07:30:08;5.23;;;4.20;;
16468;SDS011;8345;50.902;6.956;2023-07-31T07:32:36;6.27;;;4.50;;
16468;SDS011;8345;50.902;6.956;2023-07-31T07:35:03;5.73;;;4.40;;
16468;SDS011;8345;50.902;6.956;2023-07-31T07:37:31;4.77;;;4.27;;
16468;SDS011;8345;50.902;6.956;2023-07-31T07:39:58;6.67;;;3.90;;
16468;SDS011;8345;50.902;6.956;2023-07-31T07:42:26;5.73;;;4.43;;
16468;SDS011;8345;50.902;6.956;2023-07-31T07:44:54;7.13;;;4.57;;
16468;SDS011;8345;50.902;6.956;2023-07-31T07:47:22;5.27;;;4.27;;
16468;SDS011;8345;50.902;6.956;2023-07-31T07:49:49;9.47;;;4.93;;
16468;SDS011;8345;50.902;6.956;2023-07-31T07:52:16;6.53;;;3.93;;
16468;SDS011;8345;50.902;6.956;2023-07-31T07:54:43;5.13;;;4.40;;
16468;SDS011;8345;50.902;6.956;2023-07-31T07:57:10;9.73;;;4.33;;
16468;SDS011;8345;50.902;6.956;2023-07-31T07:59:37;5.37;;;4.07;;
16468;SDS011;8345;50.902;6.956;2023-07-31T08:02:06;7.37;;;4.00;;
16468;SDS011;8345;50.902;6.956;2023-07-31T08:04:33;5.30;;;3.90;;
16468;SDS011;8345;50.902;6.956;2023-07-31T08:07:00;6.47;;;3.70;;
16468;SDS011;8345;50.902;6.956;2023-07-31T08:09:27;8.50;;;3.70;;
16468;SDS011;8345;50.902;6.956;2023-07-31T08:11:55;5.90;;;3.73;;
16468;SDS011;8345;50.902;6.956;2023-07-31T08:14:27;5.77;;;3.70;;
16468;SDS011;8345;50.902;6.956;2023-07-31T08:16:54;5.97;;;3.97;;
16468;SDS011;8345;50.902;6.956;2023-07-31T08:19:22;5.63;;;3.90;;
16468;SDS011;8345;50.902;6.956;2023-07-31T08:21:49;6.33;;;4.10;;
16468;SDS011;8345;50.902;6.956;2023-07-31T08:24:17;6.57;;;3.50;;
16468;SDS011;8345;50.902;6.956;2023-07-31T08:26:44;5.47;;;3.83;;
16468;SDS011;8345;50.902;6.956;2023-07-31T08:29:11;7.77;;;4.00;;
16468;SDS011;8345;50.902;6.956;2023-07-31T08:31:38;9.73;;;6.70;;
16468;SDS011;8345;50.902;6.956;2023-07-31T08:34:05;7.43;;;4.17;;
16468;SDS011;8345;50.902;6.956;2023-07-31T08:36:34;6.17;;;4.17;;
16468;SDS011;8345;50.902;6.956;2023-07-31T08:39:01;4.87;;;4.03;;
16468;SDS011;8345;50.902;6.956;2023-07-31T08:41:29;7.40;;;4.43;;
16468;SDS011;8345;50.902;6.956;2023-07-31T08:43:57;4.00;;;3.60;;
16468;SDS011;8345;50.902;6.956;2023-07-31T08:46:25;6.23;;;3.43;;
16468;SDS011;8345;50.902;6.956;2023-07-31T08:48:52;4.53;;;3.53;;
16468;SDS011;8345;50.902;6.956;2023-07-31T08:51:23;5.10;;;3.50;;
16468;SDS011;8345;50.902;6.956;2023-07-31T08:53:52;4.10;;;3.27;;
16468;SDS011;8345;50.902;6.956;2023-07-31T08:56:19;10.67;;;3.80;;
16468;SDS011;8345;50.902;6.956;2023-07-31T08:58:47;5.43;;;3.37;;
16468;SDS011;8345;50.902;6.956;2023-07-31T09:01:15;3.73;;;3.20;;
16468;SDS011;8345;50.902;6.956;2023-07-31T09:03:43;5.83;;;3.73;;
16468;SDS011;8345;50.902;6.956;2023-07-31T09:06:11;3.60;;;2.83;;
16468;SDS011;8345;50.902;6.956;2023-07-31T09:08:39;5.10;;;3.20;;
16468;SDS011;8345;50.902;6.956;2023-07-31T09:11:09;6.70;;;3.90;;
16468;SDS011;8345;50.902;6.956;2023-07-31T09:13:36;4.90;;;3.73;;
16468;SDS011;8345;50.902;6.956;2023-07-31T09:16:03;5.17;;;3.47;;
16468;SDS011;8345;50.902;6.956;2023-07-31T09:18:31;4.73;;;3.47;;
16468;SDS011;8345;50.902;6.956;2023-07-31T09:21:01;4.47;;;3.07;;
16468;SDS011;8345;50.902;6.956;2023-07-31T09:23:39;3.53;;;2.80;;
16468;SDS011;8345;50.902;6.956;2023-07-31T09:26:08;5.10;;;2.80;;
16468;SDS011;8345;50.902;6.956;2023-07-31T09:28:35;3.60;;;2.50;;
16468;SDS011;8345;50.902;6.956;2023-07-31T09:31:03;4.03;;;2.90;;
16468;SDS011;8345;50.902;6.956;2023-07-31T09:33:30;5.63;;;3.03;;
16468;SDS011;8345;50.902;6.956;2023-07-31T09:35:58;3.87;;;2.77;;
16468;SDS011;8345;50.902;6.956;2023-07-31T09:38:26;3.90;;;2.70;;
16468;SDS011;8345;50.902;6.956;2023-07-31T09:40:53;4.77;;;3.00;;
16468;SDS011;8345;50.902;6.956;2023-07-31T09:43:22;4.00;;;3.13;;
16468;SDS011;8345;50.902;6.956;2023-07-31T09:45:54;5.40;;;2.57;;
16468;SDS011;8345;50.902;6.956;2023-07-31T09:48:22;4.30;;;3.23;;
16468;SDS011;8345;50.902;6.956;2023-07-31T09:50:51;3.90;;;3.27;;
16468;SDS011;8345;50.902;6.956;2023-07-31T09:53:19;2.93;;;2.63;;
16468;SDS011;8345;50.902;6.956;2023-07-31T09:55:46;4.77;;;2.60;;
16468;SDS011;8345;50.902;6.956;2023-07-31T09:58:13;4.33;;;3.10;;
16468;SDS011;8345;50.902;6.956;2023-07-31T10:00:41;5.67;;;2.77;;
16468;SDS011;8345;50.902;6.956;2023-07-31T10:03:09;4.10;;;2.73;;
16468;SDS011;8345;50.902;6.956;2023-07-31T10:05:37;3.57;;;2.70;;
16468;SDS011;8345;50.902;6.956;2023-07-31T10:08:05;4.80;;;2.53;;
16468;SDS011;8345;50.902;6.956;2023-07-31T10:10:33;3.87;;;2.50;;
16468;SDS011;8345;50.902;6.956;2023-07-31T10:13:02;4.07;;;2.60;;
16468;SDS011;8345;50.902;6.956;2023-07-31T10:15:31;2.57;;;2.20;;
16468;SDS011;8345;50.902;6.956;2023-07-31T10:18:00;3.83;;;2.70;;
16468;SDS011;8345;50.902;6.956;2023-07-31T10:20:28;4.60;;;2.90;;
16468;SDS011;8345;50.902;6.956;2023-07-31T10:22:56;5.17;;;2.60;;
16468;SDS011;8345;50.902;6.956;2023-07-31T10:25:24;3.17;;;2.60;;
16468;SDS011;8345;50.902;6.956;2023-07-31T10:27:53;5.03;;;2.77;;
16468;SDS011;8345;50.902;6.956;2023-07-31T10:30:20;3.90;;;2.63;;
16468;SDS011;8345;50.902;6.956;2023-07-31T10:32:49;3.43;;;2.80;;
16468;SDS011;8345;50.902;6.956;2023-07-31T10:35:18;3.07;;;2.77;;
16468;SDS011;8345;50.902;6.956;2023-07-31T10:37:47;3.03;;;2.53;;
16468;SDS011;8345;50.902;6.956;2023-07-31T10:40:15;3.80;;;2.67;;
16468;SDS011;8345;50.902;6.956;2023-07-31T10:42:45;3.80;;;2.80;;
16468;SDS011;8345;50.902;6.956;2023-07-31T10:45:13;3.70;;;2.63;;
16468;SDS011;8345;50.902;6.956;2023-07-31T10:47:42;3.23;;;2.60;;
16468;SDS011;8345;50.902;6.956;2023-07-31T10:50:13;2.93;;;2.20;;
16468;SDS011;8345;50.902;6.956;2023-07-31T10:52:42;4.00;;;2.60;;
16468;SDS011;8345;50.902;6.956;2023-07-31T10:55:23;2.67;;;2.23;;
16468;SDS011;8345;50.902;6.956;2023-07-31T10:57:50;4.10;;;2.47;;
16468;SDS011;8345;50.902;6.956;2023-07-31T11:00:18;4.90;;;2.63;;
16468;SDS011;8345;50.902;6.956;2023-07-31T11:02:55;2.50;;;1.90;;
16468;SDS011;8345;50.902;6.956;2023-07-31T11:05:25;2.23;;;2.03;;
16468;SDS011;8345;50.902;6.956;2023-07-31T11:08:12;3.03;;;2.20;;
16468;SDS011;8345;50.902;6.956;2023-07-31T11:10:39;3.10;;;2.00;;
16468;SDS011;8345;50.902;6.956;2023-07-31T11:13:07;2.70;;;1.50;;
16468;SDS011;8345;50.902;6.956;2023-07-31T11:15:34;2.37;;;1.60;;
16468;SDS011;8345;50.902;6.956;2023-07-31T11:18:01;1.40;;;1.30;;
16468;SDS011;8345;50.902;6.956;2023-07-31T11:20:30;2.40;;;2.10;;
16468;SDS011;8345;50.902;6.956;2023-07-31T11:22:58;1.60;;;1.40;;
16468;SDS011;8345;50.902;6.956;2023-07-31T11:25:28;3.30;;;1.30;;
16468;SDS011;8345;50.902;6.956;2023-07-31T11:27:55;1.67;;;1.30;;
16468;SDS011;8345;50.902;6.956;2023-07-31T11:30:22;1.30;;;1.20;;
16468;SDS011;8345;50.902;6.956;2023-07-31T11:32:50;1.70;;;1.30;;
16468;SDS011;8345;50.902;6.956;2023-07-31T11:35:17;2.47;;;1.43;;
16468;SDS011;8345;50.902;6.956;2023-07-31T11:37:44;2.93;;;1.10;;
16468;SDS011;8345;50.902;6.956;2023-07-31T11:40:12;1.90;;;1.50;;
16468;SDS011;8345;50.902;6.956;2023-07-31T11:42:40;1.07;;;1.00;;
16468;SDS011;8345;50.902;6.956;2023-07-31T11:45:08;2.27;;;1.40;;
16468;SDS011;8345;50.902;6.956;2023-07-31T11:47:36;4.53;;;1.50;;
16468;SDS011;8345;50.902;6.956;2023-07-31T11:50:04;2.13;;;1.40;;
16468;SDS011;8345;50.902;6.956;2023-07-31T11:52:33;5.10;;;1.50;;
16468;SDS011;8345;50.902;6.956;2023-07-31T11:55:01;2.57;;;1.07;;
16468;SDS011;8345;50.902;6.956;2023-07-31T11:57:28;1.30;;;1.20;;
16468;SDS011;8345;50.902;6.956;2023-07-31T11:59:57;4.40;;;3.13;;
16468;SDS011;8345;50.902;6.956;2023-07-31T12:02:24;1.70;;;1.60;;
16468;SDS011;8345;50.902;6.956;2023-07-31T12:04:51;2.80;;;1.97;;
16468;SDS011;8345;50.902;6.956;2023-07-31T12:07:19;1.40;;;1.30;;
16468;SDS011;8345;50.902;6.956;2023-07-31T12:09:52;2.03;;;1.40;;
16468;SDS011;8345;50.902;6.956;2023-07-31T12:12:20;3.03;;;1.60;;
16468;SDS011;8345;50.902;6.956;2023-07-31T12:14:47;1.90;;;1.30;;
16468;SDS011;8345;50.902;6.956;2023-07-31T12:17:17;0.90;;;0.87;;
16468;SDS011;8345;50.902;6.956;2023-07-31T12:19:48;1.03;;;1.03;;
16468;SDS011;8345;50.902;6.956;2023-07-31T12:22:15;1.13;;;1.03;;
16468;SDS011;8345;50.902;6.956;2023-07-31T12:24:43;1.10;;;1.00;;
16468;SDS011;8345;50.902;6.956;2023-07-31T12:27:11;2.23;;;1.33;;
16468;SDS011;8345;50.902;6.956;2023-07-31T12:29:38;2.23;;;1.57;;
16468;SDS011;8345;50.902;6.956;2023-07-31T12:32:19;4.30;;;3.33;;
16468;SDS011;8345;50.902;6.956;2023-07-31T12:34:47;20.23;;;15.47;;
16468;SDS011;8345;50.902;6.956;2023-07-31T12:37:14;6.00;;;4.47;;
16468;SDS011;8345;50.902;6.956;2023-07-31T12:39:41;4.00;;;3.53;;
16468;SDS011;8345;50.902;6.956;2023-07-31T12:42:08;3.30;;;3.00;;
16468;SDS011;8345;50.902;6.956;2023-07-31T12:44:36;4.80;;;3.47;;
16468;SDS011;8345;50.902;6.956;2023-07-31T12:47:03;3.77;;;3.10;;
16468;SDS011;8345;50.902;6.956;2023-07-31T12:49:31;5.77;;;4.03;;
16468;SDS011;8345;50.902;6.956;2023-07-31T12:51:59;5.63;;;3.53;;
16468;SDS011;8345;50.902;6.956;2023-07-31T12:54:26;3.80;;;2.70;;
16468;SDS011;8345;50.902;6.956;2023-07-31T12:56:53;2.40;;;2.20;;
16468;SDS011;8345;50.902;6.956;2023-07-31T12:59:20;2.90;;;2.43;;
16468;SDS011;8345;50.902;6.956;2023-07-31T13:01:47;2.83;;;2.20;;
16468;SDS011;8345;50.902;6.956;2023-07-31T13:04:15;4.13;;;2.10;;
16468;SDS011;8345;50.902;6.956;2023-07-31T13:06:43;3.03;;;2.20;;
16468;SDS011;8345;50.902;6.956;2023-07-31T13:09:10;2.07;;;1.87;;
16468;SDS011;8345;50.902;6.956;2023-07-31T13:11:37;3.77;;;2.60;;
16468;SDS011;8345;50.902;6.956;2023-07-31T13:14:05;3.23;;;2.50;;
16468;SDS011;8345;50.902;6.956;2023-07-31T13:16:32;3.10;;;2.50;;
16468;SDS011;8345;50.902;6.956;2023-07-31T13:18:59;4.00;;;2.73;;
16468;SDS011;8345;50.902;6.956;2023-07-31T13:21:26;3.40;;;2.40;;
16468;SDS011;8345;50.902;6.956;2023-07-31T13:23:55;3.53;;;3.03;;
16468;SDS011;8345;50.902;6.956;2023-07-31T13:26:23;3.07;;;2.77;;
16468;SDS011;8345;50.902;6.956;2023-07-31T13:28:50;3.60;;;2.70;;
16468;SDS011;8345;50.902;6.956;2023-07-31T13:31:17;3.60;;;2.80;;
16468;SDS011;8345;50.902;6.956;2023-07-31T13:33:44;3.03;;;2.73;;
16468;SDS011;8345;50.902;6.956;2023-07-31T13:36:11;2.97;;;2.77;;
16468;SDS011;8345;50.902;6.956;2023-07-31T13:38:39;4.27;;;3.00;;
16468;SDS011;8345;50.902;6.956;2023-07-31T13:41:07;4.63;;;3.63;;
16468;SDS011;8345;50.902;6.956;2023-07-31T13:43:35;3.23;;;2.90;;
16468;SDS011;8345;50.902;6.956;2023-07-31T13:46:02;5.00;;;3.20;;
16468;SDS011;8345;50.902;6.956;2023-07-31T13:48:31;4.43;;;2.80;;
16468;SDS011;8345;50.902;6.956;2023-07-31T13:50:59;2.80;;;2.50;;
16468;SDS011;8345;50.902;6.956;2023-07-31T13:53:26;2.77;;;2.57;;
16468;SDS011;8345;50.902;6.956;2023-07-31T13:55:53;3.10;;;2.80;;
16468;SDS011;8345;50.902;6.956;2023-07-31T13:58:21;3.30;;;2.60;;
16468;SDS011;8345;50.902;6.956;2023-07-31T14:00:49;2.57;;;2.00;;
16468;SDS011;8345;50.902;6.956;2023-07-31T14:03:16;2.60;;;2.40;;
16468;SDS011;8345;50.902;6.956;2023-07-31T14:05:43;3.53;;;2.50;;
16468;SDS011;8345;50.902;6.956;2023-07-31T14:08:10;2.50;;;2.30;;
16468;SDS011;8345;50.902;6.956;2023-07-31T14:10:37;3.10;;;2.80;;
16468;SDS011;8345;50.902;6.956;2023-07-31T14:13:05;3.03;;;2.30;;
16468;SDS011;8345;50.902;6.956;2023-07-31T14:15:33;2.53;;;2.03;;
16468;SDS011;8345;50.902;6.956;2023-07-31T14:18:01;4.27;;;2.47;;
16468;SDS011;8345;50.902;6.956;2023-07-31T14:20:28;2.60;;;2.40;;
16468;SDS011;8345;50.902;6.956;2023-07-31T14:22:56;2.67;;;2.40;;
16468;SDS011;8345;50.902;6.956;2023-07-31T14:25:24;2.57;;;2.37;;
16468;SDS011;8345;50.902;6.956;2023-07-31T14:27:51;2.53;;;1.90;;
16468;SDS011;8345;50.902;6.956;2023-07-31T14:30:18;4.50;;;2.70;;
16468;SDS011;8345;50.902;6.956;2023-07-31T14:32:47;3.13;;;2.80;;
16468;SDS011;8345;50.902;6.956;2023-07-31T14:35:14;3.00;;;2.70;;
16468;SDS011;8345;50.902;6.956;2023-07-31T14:37:42;2.80;;;2.60;;
16468;SDS011;8345;50.902;6.956;2023-07-31T14:40:10;3.23;;;2.57;;
16468;SDS011;8345;50.902;6.956;2023-07-31T14:42:38;3.50;;;2.60;;
16468;SDS011;8345;50.902;6.956;2023-07-31T14:45:06;2.93;;;2.63;;
16468;SDS011;8345;50.902;6.956;2023-07-31T14:47:33;4.37;;;2.50;;
16468;SDS011;8345;50.902;6.956;2023-07-31T14:50:02;3.43;;;3.10;;
16468;SDS011;8345;50.902;6.956;2023-07-31T14:52:30;2.80;;;2.60;;
16468;SDS011;8345;50.902;6.956;2023-07-31T14:54:58;2.80;;;2.60;;
16468;SDS011;8345;50.902;6.956;2023-07-31T14:57:27;2.97;;;2.60;;
16468;SDS011;8345;50.902;6.956;2023-07-31T14:59:54;4.17;;;3.43;;
16468;SDS011;8345;50.902;6.956;2023-07-31T15:02:22;3.23;;;2.93;;
16468;SDS011;8345;50.902;6.956;2023-07-31T15:04:49;3.67;;;2.83;;
16468;SDS011;8345;50.902;6.956;2023-07-31T15:07:17;4.93;;;3.17;;